Home > Products > Valid Products > OSO

000
SXUS55 KMSO 310843
OSOMSO
MONTANA AWOS SUMMARY
NATIONAL WEATHER SERVICE MISSOULA MT
243 AM MDT TUE MAY 31 2016

Montana AWOS Reports

LAUREL      |K6S8 310835Z AUTO 25004KT 40SM 08/00 A3009 RMK AO1 T00780000
ROUNDUP     |KRPX 310835Z AUTO 27015G19KT 40SM 11/00 A3001 RMK AO1 T01060000
TWIN BRIDGES|K7S1 310835Z AUTO 35012G17KT 40SM 08/M01 A3015 RMK AO1 T00831005






000
SXUS55 KMSO 310743
OSOMSO
MONTANA AWOS SUMMARY
NATIONAL WEATHER SERVICE MISSOULA MT
143 AM MDT TUE MAY 31 2016

Montana AWOS Reports

TWIN BRIDGES|K7S1 310735Z AUTO 33011G15KT 40SM 08/M01 A3014 RMK AO1 T00781010
ROUNDUP     |KRPX 310735Z AUTO 28015G23KT 40SM 11/01 A3000 RMK AO1 T01060006






000
SXUS55 KMSO 310644
OSOMSO
MONTANA AWOS SUMMARY
NATIONAL WEATHER SERVICE MISSOULA MT
1243 AM MDT TUE MAY 31 2016

Montana AWOS Reports

LAUREL      |K6S8 310635Z AUTO 24004KT 40SM 07/01 A3012 RMK AO1 T00670006
ROUNDUP     |KRPX 310635Z AUTO 26010G17KT 40SM 12/01 A3001 RMK AO1 T01170011






000
SXUS55 KMSO 310624
OSOMSO
MONTANA AWOS SUMMARY
NATIONAL WEATHER SERVICE MISSOULA MT
1223 AM MDT TUE MAY 31 2016

Montana AWOS Reports

LAUREL      |K6S8 310615Z AUTO 00000KT 40SM 07/00 A3013 RMK AO1 T00670000
ROUNDUP     |KRPX 310615Z AUTO 00000KT 40SM 11/02 A3002 RMK AO1 T01110017
TWIN BRIDGES|K7S1 310615Z AUTO 34009KT 40SM 09/M05 A3014 RMK AO1 T00941049






000
SXUS55 KMSO 310613
OSOMSO
MONTANA AWOS SUMMARY
NATIONAL WEATHER SERVICE MISSOULA MT
1213 AM MDT TUE MAY 31 2016

Montana AWOS Reports

EKALAKA     |K97M 310555Z AUTO 27009G15KT 40SM 07/01 A2999 RMK AO1 T00670011






000
SXUS55 KMSO 310513
OSOMSO
MONTANA AWOS SUMMARY
NATIONAL WEATHER SERVICE MISSOULA MT
1113 PM MDT MON MAY 30 2016

Montana AWOS Reports

SCOBEY      |K9S2 310455Z AUTO 00000KT 10SM 11/06 A2988 RMK AO1 T01060061
EKALAKA     |K97M 310455Z AUTO 26009G14KT 40SM 08/03 A3000 RMK AO1 T00780028
PLAINS      |KS34 310455Z AUTO 00000KT 40SM 11/02 A3017 RMK AO1 T01060017
LAUREL      |K6S8 310455Z AUTO 00000KT 40SM 11/M01 A3013 RMK AO1 T01111005






000
SXUS55 KMSO 310423
OSOMSO
MONTANA AWOS SUMMARY
NATIONAL WEATHER SERVICE MISSOULA MT
1023 PM MDT MON MAY 30 2016

Montana AWOS Reports

LAUREL      |K6S8 310415Z AUTO 33004KT 40SM 12/00 A3013 RMK AO1 T01170000
TWIN BRIDGES|K7S1 310415Z AUTO 35010G14KT 40SM 13/M06 A3013 RMK AO1 T01281055
ROUNDUP     |KRPX 310415Z AUTO 30015G20KT 40SM 12/02 A3001 RMK AO1 T01170017






000
SXUS55 KMSO 310114
OSOMSO
MONTANA AWOS SUMMARY
NATIONAL WEATHER SERVICE MISSOULA MT
713 PM MDT MON MAY 30 2016

Montana AWOS Reports

SCOBEY      |K9S2 310055Z AUTO 00000KT 25SM 12/07 A2992 RMK AO1 T01220072
EKALAKA     |K97M 310055Z AUTO 29009G15KT 40SM 11/07 A2998 RMK AO1 T01110072
PLAINS      |KS34 310055Z AUTO 29005KT 40SM 22/M01 A3012 RMK AO1 T02171005
TWIN BRIDGES|K7S1 310055Z AUTO 34014G18KT 40SM 18/M06 A3008 RMK AO1 T01831060
LAUREL      |K6S8 310055Z AUTO 35010G17KT 40SM 17/02 A3006 RMK AO1 T01670017






000
SXUS55 KMSO 310043
OSOMSO
MONTANA AWOS SUMMARY
NATIONAL WEATHER SERVICE MISSOULA MT
643 PM MDT MON MAY 30 2016

Montana AWOS Reports

TWIN BRIDGES|K7S1 310035Z AUTO 35015KT 40SM 19/M06 A3008 RMK AO1 T01891055
ROUNDUP     |KRPX 310035Z AUTO 29015G28KT 40SM 15/01 A2998 RMK AO1 T01500006






000
SXUS55 KMSO 310004
OSOMSO
MONTANA AWOS SUMMARY
NATIONAL WEATHER SERVICE MISSOULA MT
603 PM MDT MON MAY 30 2016

Montana AWOS Reports

LAUREL      |K6S8 302355Z AUTO 34011G16KT 40SM 16/01 A3006 RMK AO1 T01610011






000
SXUS55 KMSO 302323
OSOMSO
MONTANA AWOS SUMMARY
NATIONAL WEATHER SERVICE MISSOULA MT
523 PM MDT MON MAY 30 2016

Montana AWOS Reports

TWIN BRIDGES|K7S1 302315Z AUTO 34012G16KT 40SM 20/M06 A3008 RMK AO1 T02001060
ROUNDUP     |KRPX 302315Z AUTO 31020G31KT 40SM 15/02 A2997 RMK AO1 T01500017






000
SXUS55 KMSO 302303
OSOMSO
MONTANA AWOS SUMMARY
NATIONAL WEATHER SERVICE MISSOULA MT
503 PM MDT MON MAY 30 2016

Montana AWOS Reports

LAUREL      |K6S8 302255Z AUTO 02006KT 40SM 18/02 A3004 RMK AO1 T01830022
ROUNDUP     |KRPX 302255Z AUTO 31023G29KT 40SM 15/02 A2997 RMK AO1 T01500017






000
SXUS55 KMSO 302143
OSOMSO
MONTANA AWOS SUMMARY
NATIONAL WEATHER SERVICE MISSOULA MT
343 PM MDT MON MAY 30 2016

Montana AWOS Reports

TWIN BRIDGES|K7S1 302135Z AUTO 27008KT 40SM 19/M04 A3009 RMK AO1 T01941043
ROUNDUP     |KRPX 302135Z AUTO 32015G22KT 40SM 16/03 A2996 RMK AO1 T01560033






000
SXUS55 KMSO 302113
OSOMSO
MONTANA AWOS SUMMARY
NATIONAL WEATHER SERVICE MISSOULA MT
313 PM MDT MON MAY 30 2016

Montana AWOS Reports

TWIN BRIDGES|K7S1 302055Z AUTO 20006KT 40SM 18/M04 A3009 RMK AO1 T01831043
LAUREL      |K6S8 302055Z AUTO 31011G15KT 40SM 15/04 A3004 RMK AO1 T01500039






000
SXUS55 KMSO 302024
OSOMSO
MONTANA AWOS SUMMARY
NATIONAL WEATHER SERVICE MISSOULA MT
223 PM MDT MON MAY 30 2016

Montana AWOS Reports

ROUNDUP     |KRPX 302015Z AUTO 30017G22KT 40SM 13/02 A2996 RMK AO1 T01330022






000
SXUS55 KMSO 302004
OSOMSO
MONTANA AWOS SUMMARY
NATIONAL WEATHER SERVICE MISSOULA MT
203 PM MDT MON MAY 30 2016

Montana AWOS Reports

LAUREL      |K6S8 301955Z AUTO 32016G26KT 40SM 13/05 A3003 RMK AO1 T01330050
ROUNDUP     |KRPX 301955Z AUTO 31011G21KT 40SM 13/03 A2997 RMK AO1 T01330033
PLAINS      |KS34 301955Z AUTO 33004KT 40SM 21/01 A3014 RMK AO1 T02110011






000
SXUS55 KMSO 301943
OSOMSO
MONTANA AWOS SUMMARY
NATIONAL WEATHER SERVICE MISSOULA MT
143 PM MDT MON MAY 30 2016

Montana AWOS Reports

TWIN BRIDGES|K7S1 301935Z AUTO 26014KT 40SM 18/M08 A3010 RMK AO1 T01781077
ROUNDUP     |KRPX 301935Z AUTO 31018G23KT 40SM 15/03 A2995 RMK AO1 T01500033






000
SXUS55 KMSO 301643
OSOMSO
MONTANA AWOS SUMMARY
NATIONAL WEATHER SERVICE MISSOULA MT
1042 AM MDT MON MAY 30 2016

Montana AWOS Reports

LAUREL      |K6S8 301635Z AUTO 00000KT 40SM 15/08 A3000 RMK AO1 T01500078






000
SXUS55 KMSO 301513
OSOMSO
MONTANA AWOS SUMMARY
NATIONAL WEATHER SERVICE MISSOULA MT
913 AM MDT MON MAY 30 2016

Montana AWOS Reports

LAUREL      |K6S8 301455Z AUTO 00000KT 40SM 16/08 A3001 RMK AO1 T01560078






000
SXUS55 KMSO 301503
OSOMSO
MONTANA AWOS SUMMARY
NATIONAL WEATHER SERVICE MISSOULA MT
903 AM MDT MON MAY 30 2016

Montana AWOS Reports

LAUREL      |K6S8 301455Z AUTO 00000KT 40SM 16/08 A3001 RMK AO1 T01560078
EKALAKA     |K97M 301455Z AUTO 34009KT 40SM 13/10 A2994 RMK AO1 T01280100
PLAINS      |KS34 301455Z AUTO 00000KT 25SM 13/03 A3015 RMK AO1 T01330033
ROUNDUP     |KRPX 301455Z AUTO 22007KT 40SM 16/08 A2991 RMK AO1 T01560078
SCOBEY      |K9S2 301455Z AUTO 22010G14KT 40SM 17/05 A2991 RMK AO1 T01670050
TWIN BRIDGES|K7S1 301455Z AUTO 20005KT 40SM 12/03 A3009 RMK AO1 T01220033






000
SXUS55 KMSO 301443
OSOMSO
MONTANA AWOS SUMMARY
NATIONAL WEATHER SERVICE MISSOULA MT
842 AM MDT MON MAY 30 2016

Montana AWOS Reports

LAUREL      |K6S8 301435Z AUTO 00000KT 40SM 16/08 A3001 RMK AO1 T01560078
TWIN BRIDGES|K7S1 301435Z AUTO 00000KT 40SM 11/04 A3009 RMK AO1 T01110044
ROUNDUP     |KRPX 301435Z AUTO 20005KT 40SM 14/09 A2991 RMK AO1 T01440089






000
SXUS55 KMSO 301423
OSOMSO
MONTANA AWOS SUMMARY
NATIONAL WEATHER SERVICE MISSOULA MT
823 AM MDT MON MAY 30 2016

Montana AWOS Reports

TWIN BRIDGES|K7S1 301415Z AUTO 15004KT 40SM 11/03 A3009 RMK AO1 T01060033
ROUNDUP     |KRPX 301415Z AUTO 00000KT 40SM 15/09 A2990 RMK AO1 T01500089






000
SXUS55 KMSO 301403
OSOMSO
MONTANA AWOS SUMMARY
NATIONAL WEATHER SERVICE MISSOULA MT
802 AM MDT MON MAY 30 2016

Montana AWOS Reports

LAUREL      |K6S8 301355Z AUTO 00000KT 40SM 14/09 A3001 RMK AO1 T01390089
TWIN BRIDGES|K7S1 301355Z AUTO 00000KT 40SM 09/03 A3009 RMK AO1 T00890033
ROUNDUP     |KRPX 301355Z AUTO 00000KT 40SM 14/09 A2991 RMK AO1 T01440089
SCOBEY      |K9S2 301355Z AUTO 19005KT 40SM 15/04 A2989 RMK AO1 T01500039
EKALAKA     |K97M 301355Z AUTO 00000KT 25SM 14/10 A2990 RMK AO1 T01440100
PLAINS      |KS34 301355Z AUTO 00000KT 25SM 12/04 A3014 RMK AO1 T01170039






000
SXUS55 KMSO 301343
OSOMSO
MONTANA AWOS SUMMARY
NATIONAL WEATHER SERVICE MISSOULA MT
743 AM MDT MON MAY 30 2016

Montana AWOS Reports

TWIN BRIDGES|K7S1 301335Z AUTO 00000KT 40SM 09/04 A3008 RMK AO1 T00890039
ROUNDUP     |KRPX 301335Z AUTO 00000KT 40SM 13/09 A2991 RMK AO1 T01330089






000
SXUS55 KMSO 301303
OSOMSO
MONTANA AWOS SUMMARY
NATIONAL WEATHER SERVICE MISSOULA MT
703 AM MDT MON MAY 30 2016

Montana AWOS Reports

LAUREL      |K6S8 301255Z AUTO 22004KT 25SM 11/09 A3000 RMK AO1 T01110089
PLAINS      |KS34 301255Z AUTO 00000KT 25SM 11/04 A3011 RMK AO1 T01060044
TWIN BRIDGES|K7S1 301255Z AUTO 00000KT 40SM 07/03 A3008 RMK AO1 T00720033
ROUNDUP     |KRPX 301255Z AUTO 27004KT 40SM 12/09 A2992 RMK AO1 T01170089
SCOBEY      |K9S2 301255Z AUTO 00000KT 40SM 12/02 A2990 RMK AO1 T01170022
EKALAKA     |K97M 301255Z AUTO 34005KT 40SM 13/08 A2992 RMK AO1 T01330083






000
SXUS55 KMSO 301244
OSOMSO
MONTANA AWOS SUMMARY
NATIONAL WEATHER SERVICE MISSOULA MT
643 AM MDT MON MAY 30 2016

Montana AWOS Reports

TWIN BRIDGES|K7S1 301235Z AUTO 00000KT 40SM 08/03 A3007 RMK AO1 T00780028
ROUNDUP     |KRPX 301235Z AUTO 00000KT 40SM 11/08 A2991 RMK AO1 T01060078






000
SXUS55 KMSO 301213
OSOMSO
MONTANA AWOS SUMMARY
NATIONAL WEATHER SERVICE MISSOULA MT
613 AM MDT MON MAY 30 2016

Montana AWOS Reports

ROUNDUP     |KRPX 301155Z AUTO 00000KT 40SM 11/08 A2991 RMK AO1 T01110078
LAUREL      |K6S8 301155Z AUTO 00000KT 40SM 11/08 A2999 RMK AO1 T01060078
SCOBEY      |K9S2 301155Z AUTO 00000KT 25SM 07/01 A2990 RMK AO1 T00720011
EKALAKA     |K97M 301155Z AUTO 28012G16KT 40SM 15/10 A2988 RMK AO1 T01500100






000
SXUS55 KMSO 301203
OSOMSO
MONTANA AWOS SUMMARY
NATIONAL WEATHER SERVICE MISSOULA MT
602 AM MDT MON MAY 30 2016

Montana AWOS Reports

LAUREL      |K6S8 301155Z AUTO 00000KT 40SM 11/08 A2999 RMK AO1 T01060078
PLAINS      |KS34 301155Z AUTO 00000KT 25SM 08/02 A3008 RMK AO1 T00830022
TWIN BRIDGES|K7S1 301155Z AUTO 00000KT 40SM 06/02 A3007 RMK AO1 T00610017






000
SXUS55 KMSO 301113
OSOMSO
MONTANA AWOS SUMMARY
NATIONAL WEATHER SERVICE MISSOULA MT
512 AM MDT MON MAY 30 2016

Montana AWOS Reports

EKALAKA     |K97M 301055Z AUTO 12004KT 40SM 14/09 A2989 RMK AO1 T01390094
PLAINS      |KS34 301055Z AUTO 00000KT 25SM 10/04 A3006 RMK AO1 T01000039
SCOBEY      |K9S2 301055Z AUTO 00000KT 25SM 06/M01 A2989 RMK AO1 T00561005
LAUREL      |K6S8 301055Z AUTO 30004KT 40SM 11/08 A2999 RMK AO1 T01110078






000
SXUS55 KMSO 301023
OSOMSO
MONTANA AWOS SUMMARY
NATIONAL WEATHER SERVICE MISSOULA MT
423 AM MDT MON MAY 30 2016

Montana AWOS Reports

LAUREL      |K6S8 301015Z AUTO 00000KT 40SM 11/07 A2998 RMK AO1 T01110072
TWIN BRIDGES|K7S1 301015Z AUTO 34004KT 40SM 10/02 A3004 RMK AO1 T01000022
ROUNDUP     |KRPX 301015Z AUTO 26004KT 40SM 12/08 A2990 RMK AO1 T01220078






000
SXUS55 KMSO 300913
OSOMSO
MONTANA AWOS SUMMARY
NATIONAL WEATHER SERVICE MISSOULA MT
313 AM MDT MON MAY 30 2016

Montana AWOS Reports

SCOBEY      |K9S2 300855Z AUTO 00000KT 40SM 08/02 A2989 RMK AO1 T00780017
EKALAKA     |K97M 300855Z AUTO 12007KT 40SM 13/09 A2989 RMK AO1 T01280089
LAUREL      |K6S8 300855Z AUTO 25010G19KT 40SM 13/07 A2999 RMK AO1 T01330067






000
SXUS55 KMSO 300903
OSOMSO
MONTANA AWOS SUMMARY
NATIONAL WEATHER SERVICE MISSOULA MT
303 AM MDT MON MAY 30 2016

Montana AWOS Reports

LAUREL      |K6S8 300855Z AUTO 25010G19KT 40SM 13/07 A2999 RMK AO1 T01330067
PLAINS      |KS34 300855Z AUTO 00000KT 25SM 11/06 A3003 RMK AO1 T01060056
TWIN BRIDGES|K7S1 300855Z AUTO 00000KT 40SM 14/01 A3003 RMK AO1 T01390011
ROUNDUP     |KRPX 300855Z AUTO 31007KT 25SM 12/08 A2989 RMK AO1 T01220078






000
SXUS55 KMSO 300603
OSOMSO
MONTANA AWOS SUMMARY
NATIONAL WEATHER SERVICE MISSOULA MT
1203 AM MDT MON MAY 30 2016

Montana AWOS Reports

LAUREL      |K6S8 300555Z AUTO 02005KT 40SM 17/06 A2989 RMK AO1 T01720056
TWIN BRIDGES|K7S1 300555Z AUTO 34008KT 40SM 14/02 A2999 RMK AO1 T01390022
PLAINS      |KS34 300555Z AUTO 00000KT 25SM 16/03 A3000 RMK AO1 T01610033
SCOBEY      |K9S2 300555Z AUTO 00000KT 40SM 12/03 A2991 RMK AO1 T01170033
EKALAKA     |K97M 300555Z AUTO 12007KT 40SM 14/08 A2995 RMK AO1 T01440083






000
SXUS55 KMSO 300533
OSOMSO
MONTANA AWOS SUMMARY
NATIONAL WEATHER SERVICE MISSOULA MT
1133 PM MDT SUN MAY 29 2016

Montana AWOS Reports

TWIN BRIDGES|K7S1 300515Z AUTO 33007KT 40SM 15/01 A2998 RMK AO1 T01500011






000
SXUS55 KMSO 300523
OSOMSO
MONTANA AWOS SUMMARY
NATIONAL WEATHER SERVICE MISSOULA MT
1123 PM MDT SUN MAY 29 2016

Montana AWOS Reports

LAUREL      |K6S8 300515Z AUTO 29009G14KT 40SM 18/06 A2993 RMK AO1 T01830056
ROUNDUP     |KRPX 300515Z AUTO 29007KT 40SM 16/06 A2987 RMK AO1 T01610056






000
SXUS55 KMSO 300513
OSOMSO
MONTANA AWOS SUMMARY
NATIONAL WEATHER SERVICE MISSOULA MT
1112 PM MDT SUN MAY 29 2016

Montana AWOS Reports

TWIN BRIDGES|K7S1 300455Z AUTO 34012G17KT 40SM 16/01 A2998 RMK AO1 T01610006
PLAINS      |KS34 300455Z AUTO 00000KT 25SM 16/02 A2999 RMK AO1 T01610022
LAUREL      |K6S8 300455Z AUTO 28009G14KT 40SM 18/07 A2994 RMK AO1 T01780067






000
SXUS55 KMSO 300443
OSOMSO
MONTANA AWOS SUMMARY
NATIONAL WEATHER SERVICE MISSOULA MT
1043 PM MDT SUN MAY 29 2016

Montana AWOS Reports

LAUREL      |K6S8 300435Z AUTO 28004KT 40SM 16/08 A2993 RMK AO1 T01560078
TWIN BRIDGES|K7S1 300435Z AUTO 36012G19KT 40SM 16/M01 A2998 RMK AO1 T01611005
ROUNDUP     |KRPX 300435Z AUTO 00000KT 40SM 16/07 A2987 RMK AO1 T01560067






000
SXUS55 KMSO 300323
OSOMSO
MONTANA AWOS SUMMARY
NATIONAL WEATHER SERVICE MISSOULA MT
923 PM MDT SUN MAY 29 2016

Montana AWOS Reports

LAUREL      |K6S8 300315Z AUTO 40SM 16/06 A2993 RMK AO1 T01610061
ROUNDUP     |KRPX 300315Z AUTO 00000KT 40SM 17/06 A2987 RMK AO1 T01720056
TWIN BRIDGES|K7S1 300315Z AUTO 22004KT 40SM 17/M01 A2996 RMK AO1 T01671005






000
SXUS55 KMSO 300243
OSOMSO
MONTANA AWOS SUMMARY
NATIONAL WEATHER SERVICE MISSOULA MT
843 PM MDT SUN MAY 29 2016

Montana AWOS Reports

LAUREL      |K6S8 300235Z AUTO 00000KT 40SM 20/07 A2993 RMK AO1 T02000067
ROUNDUP     |KRPX 300235Z AUTO 00000KT 40SM 18/06 A2987 RMK AO1 T01830056






000
SXUS55 KMSO 300133
OSOMSO
MONTANA AWOS SUMMARY
NATIONAL WEATHER SERVICE MISSOULA MT
733 PM MDT SUN MAY 29 2016

Montana AWOS Reports

TWIN BRIDGES|K7S1 300115Z AUTO 00000KT 40SM 21/M02 A2996 RMK AO1 T02111016






000
SXUS55 KMSO 300103
OSOMSO
MONTANA AWOS SUMMARY
NATIONAL WEATHER SERVICE MISSOULA MT
703 PM MDT SUN MAY 29 2016

Montana AWOS Reports

LAUREL      |K6S8 300055Z AUTO 00000KT 40SM 23/06 A2993 RMK AO1 T02330056
ROUNDUP     |KRPX 300055Z AUTO 00000KT 40SM 22/06 A2986 RMK AO1 T02170061
PLAINS      |KS34 300055Z AUTO 00000KT 25SM 21/06 A2993 RMK AO1 T02110056
TWIN BRIDGES|K7S1 300055Z AUTO 00000KT 40SM 22/M02 A2996 RMK AO1 T02171021
SCOBEY      |K9S2 300055Z AUTO 27009KT 40SM 22/02 A2992 RMK AO1 T02170022
EKALAKA     |K97M 300055Z AUTO 00000KT 40SM 24/03 A2996 RMK AO1 T02440033






000
SXUS55 KMSO 292313
OSOMSO
MONTANA AWOS SUMMARY
NATIONAL WEATHER SERVICE MISSOULA MT
513 PM MDT SUN MAY 29 2016

Montana AWOS Reports

LAUREL      |K6S8 292255Z AUTO 00000KT 40SM 24/04 A2994 RMK AO1 T02390039






000
SXUS55 KMSO 292303
OSOMSO
MONTANA AWOS SUMMARY
NATIONAL WEATHER SERVICE MISSOULA MT
503 PM MDT SUN MAY 29 2016

Montana AWOS Reports

ROUNDUP     |KRPX 292255Z AUTO 28005KT 40SM 23/03 A2987 RMK AO1 T02330028
PLAINS      |KS34 292255Z AUTO 00000KT 40SM 20/08 A2996 RMK AO1 T02000078
LAUREL      |K6S8 292255Z AUTO 00000KT 40SM 24/04 A2994 RMK AO1 T02390039
TWIN BRIDGES|K7S1 292255Z AUTO 14005KT 40SM 21/M01 A2998 RMK AO1 T02111010
SCOBEY      |K9S2 292255Z AUTO 26016G22KT 40SM 22/02 A2993 RMK AO1 T02220017
EKALAKA     |K97M 292255Z AUTO 00000KT 2SM HZ 24/02 A2997 RMK AO1 T02390022






000
SXUS55 KMSO 291904
OSOMSO
MONTANA AWOS SUMMARY
NATIONAL WEATHER SERVICE MISSOULA MT
103 PM MDT SUN MAY 29 2016

Montana AWOS Reports

LAUREL      |K6S8 291855Z AUTO 00000KT 40SM 21/07 A3001 RMK AO1 T02110067
ROUNDUP     |KRPX 291855Z AUTO 00000KT 40SM 21/03 A2993 RMK AO1 T02110033






000
SXUS55 KMSO 291743
OSOMSO
MONTANA AWOS SUMMARY
NATIONAL WEATHER SERVICE MISSOULA MT
1143 AM MDT SUN MAY 29 2016

Montana AWOS Reports

LAUREL      |K6S8 291735Z AUTO 00000KT 40SM 19/06 A3003 RMK AO1 T01890061
TWIN BRIDGES|K7S1 291735Z AUTO 00000KT 40SM 16/03 A3007 RMK AO1 T01610033
ROUNDUP     |KRPX 291735Z AUTO 18007KT 40SM 19/03 A2995 RMK AO1 T01890028






000
SXUS55 KMSO 291724
OSOMSO
MONTANA AWOS SUMMARY
NATIONAL WEATHER SERVICE MISSOULA MT
1123 AM MDT SUN MAY 29 2016

Montana AWOS Reports

LAUREL      |K6S8 291715Z AUTO 00000KT 40SM 18/07 A3004 RMK AO1 T01830067
ROUNDUP     |KRPX 291715Z AUTO 19006KT 40SM 18/04 A2995 RMK AO1 T01830039
TWIN BRIDGES|K7S1 291715Z AUTO 00000KT 40SM 15/02 A3007 RMK AO1 T01500022






000
SXUS55 KMSO 291713
OSOMSO
MONTANA AWOS SUMMARY
NATIONAL WEATHER SERVICE MISSOULA MT
1112 AM MDT SUN MAY 29 2016

Montana AWOS Reports

LAUREL      |K6S8 291655Z AUTO 00000KT 40SM 18/08 A3004 RMK AO1 T01830078






000
SXUS55 KMSO 291644
OSOMSO
MONTANA AWOS SUMMARY
NATIONAL WEATHER SERVICE MISSOULA MT
1043 AM MDT SUN MAY 29 2016

Montana AWOS Reports

LAUREL      |K6S8 291635Z AUTO 00000KT 40SM 18/07 A3004 RMK AO1 T01780067






000
SXUS55 KMSO 291403
OSOMSO
MONTANA AWOS SUMMARY
NATIONAL WEATHER SERVICE MISSOULA MT
802 AM MDT SUN MAY 29 2016

Montana AWOS Reports

LAUREL      |K6S8 291355Z AUTO 00000KT 40SM 11/07 A3005 RMK AO1 T01060067
ROUNDUP     |KRPX 291355Z AUTO 00000KT 40SM 08/03 A2998 RMK AO1 T00780033
SCOBEY      |K9S2 291355Z AUTO 00000KT 40SM 11/03 A2999 RMK AO1 T01110033
EKALAKA     |K97M 291355Z AUTO 00000KT 40SM 17/06 A3004 RMK AO1 T01720061
PLAINS      |KS34 291355Z AUTO 00000KT 40SM 06/04 A3006 RMK AO1 T00610044
TWIN BRIDGES|K7S1 291355Z AUTO 12004KT 40SM 07/02 A3009 RMK AO1 T00670022






000
SXUS55 KMSO 291303
OSOMSO
MONTANA AWOS SUMMARY
NATIONAL WEATHER SERVICE MISSOULA MT
703 AM MDT SUN MAY 29 2016

Montana AWOS Reports

ROUNDUP     |KRPX 291255Z AUTO 21005KT 40SM 06/03 A2997 RMK AO1 T00610028
LAUREL      |K6S8 291255Z AUTO 00000KT 25SM 08/05 A3005 RMK AO1 T00780050
TWIN BRIDGES|K7S1 291255Z AUTO 00000KT 25SM 03/01 A3009 RMK AO1 T00330006
SCOBEY      |K9S2 291255Z AUTO 00000KT 25SM 09/03 A2998 RMK AO1 T00940028






000
SXUS55 KMSO 291243
OSOMSO
MONTANA AWOS SUMMARY
NATIONAL WEATHER SERVICE MISSOULA MT
643 AM MDT SUN MAY 29 2016

Montana AWOS Reports

LAUREL      |K6S8 291235Z AUTO 00000KT 25SM 07/04 A3005 RMK AO1 T00670044
ROUNDUP     |KRPX 291235Z AUTO 00000KT 40SM 06/02 A2997 RMK AO1 T00560022






000
SXUS55 KMSO 291233
OSOMSO
MONTANA AWOS SUMMARY
NATIONAL WEATHER SERVICE MISSOULA MT
633 AM MDT SUN MAY 29 2016

Montana AWOS Reports

TWIN BRIDGES|K7S1 291215Z AUTO 00000KT 25SM 03/01 A3009 RMK AO1 T00330006






000
SXUS55 KMSO 291203
OSOMSO
MONTANA AWOS SUMMARY
NATIONAL WEATHER SERVICE MISSOULA MT
603 AM MDT SUN MAY 29 2016

Montana AWOS Reports

LAUREL      |K6S8 291155Z AUTO 00000KT 15SM 05/03 A3004 RMK AO1 T00500028
ROUNDUP     |KRPX 291155Z AUTO 21005KT 40SM 06/02 A2997 RMK AO1 T00560022
TWIN BRIDGES|K7S1 291155Z AUTO 00000KT 25SM 03/00 A3009 RMK AO1 T00280000
SCOBEY      |K9S2 291155Z AUTO 00000KT 25SM 06/00 A2998 RMK AO1 T00560000
PLAINS      |KS34 291155Z AUTO 00000KT 25SM 03/01 A3006 RMK AO1 T00280006






000
SXUS55 KMSO 291123
OSOMSO
MONTANA AWOS SUMMARY
NATIONAL WEATHER SERVICE MISSOULA MT
523 AM MDT SUN MAY 29 2016

Montana AWOS Reports

LAUREL      |K6S8 291115Z AUTO 00000KT 25SM 05/02 A3003 RMK AO1 T00500022
ROUNDUP     |KRPX 291115Z AUTO 20006KT 40SM 04/02 A2996 RMK AO1 T00440017
TWIN BRIDGES|K7S1 291115Z AUTO 00000KT 40SM 04/00 A3008 RMK AO1 T00390000






000
SXUS55 KMSO 291113
OSOMSO
MONTANA AWOS SUMMARY
NATIONAL WEATHER SERVICE MISSOULA MT
513 AM MDT SUN MAY 29 2016

Montana AWOS Reports

LAUREL      |K6S8 291055Z AUTO 00000KT 25SM 05/02 A3003 RMK AO1 T00500022
PLAINS      |KS34 291055Z AUTO 00000KT 25SM 03/01 A3005 RMK AO1 T00280006
EKALAKA     |K97M 291055Z AUTO 14008KT 40SM 12/04 A3003 RMK AO1 T01220039






000
SXUS55 KMSO 290913
OSOMSO
MONTANA AWOS SUMMARY
NATIONAL WEATHER SERVICE MISSOULA MT
313 AM MDT SUN MAY 29 2016

Montana AWOS Reports

EKALAKA     |K97M 290855Z AUTO 13006KT 40SM 09/03 A3002 RMK AO1 T00940033
LAUREL      |K6S8 290855Z AUTO 00000KT 40SM 07/03 A3003 RMK AO1 T00670033






000
SXUS55 KMSO 290843
OSOMSO
MONTANA AWOS SUMMARY
NATIONAL WEATHER SERVICE MISSOULA MT
243 AM MDT SUN MAY 29 2016

Montana AWOS Reports

LAUREL      |K6S8 290835Z AUTO 00000KT 25SM 07/03 A3003 RMK AO1 T00670033
TWIN BRIDGES|K7S1 290835Z AUTO 00000KT 25SM 05/02 A3007 RMK AO1 T00500017






000
SXUS55 KMSO 290823
OSOMSO
MONTANA AWOS SUMMARY
NATIONAL WEATHER SERVICE MISSOULA MT
223 AM MDT SUN MAY 29 2016

Montana AWOS Reports

LAUREL      |K6S8 290815Z AUTO 24004KT 25SM 07/02 A3003 RMK AO1 T00670022
TWIN BRIDGES|K7S1 290815Z AUTO 00000KT 40SM 04/01 A3006 RMK AO1 T00440006
ROUNDUP     |KRPX 290815Z AUTO 29004KT 40SM 07/02 A2996 RMK AO1 T00670022






000
SXUS55 KMSO 290813
OSOMSO
MONTANA AWOS SUMMARY
NATIONAL WEATHER SERVICE MISSOULA MT
213 AM MDT SUN MAY 29 2016

Montana AWOS Reports

SCOBEY      |K9S2 290755Z AUTO 00000KT 25SM 06/00 A2996 RMK AO1 T00560000
LAUREL      |K6S8 290755Z AUTO 00000KT 40SM 07/02 A3003 RMK AO1 T00720022






000
SXUS55 KMSO 290714
OSOMSO
MONTANA AWOS SUMMARY
NATIONAL WEATHER SERVICE MISSOULA MT
113 AM MDT SUN MAY 29 2016

Montana AWOS Reports

LAUREL      |K6S8 290655Z AUTO 00000KT 40SM 07/02 A3003 RMK AO1 T00720022






000
SXUS55 KMSO 290703
OSOMSO
MONTANA AWOS SUMMARY
NATIONAL WEATHER SERVICE MISSOULA MT
103 AM MDT SUN MAY 29 2016

Montana AWOS Reports

LAUREL      |K6S8 290655Z AUTO 00000KT 40SM 07/02 A3003 RMK AO1 T00720022
PLAINS      |KS34 290655Z AUTO 00000KT 25SM 05/02 A3005 RMK AO1 T00500017
TWIN BRIDGES|K7S1 290655Z AUTO 11005KT 40SM 06/01 A3006 RMK AO1 T00610011
ROUNDUP     |KRPX 290655Z AUTO 00000KT 40SM 09/03 A2997 RMK AO1 T00940028
SCOBEY      |K9S2 290655Z AUTO 00000KT 40SM 08/02 A2996 RMK AO1 T00830017
EKALAKA     |K97M 290655Z AUTO 00000KT 40SM 10/04 A3002 RMK AO1 T01000039






000
SXUS55 KMSO 290613
OSOMSO
MONTANA AWOS SUMMARY
NATIONAL WEATHER SERVICE MISSOULA MT
1213 AM MDT SUN MAY 29 2016

Montana AWOS Reports

TWIN BRIDGES|K7S1 290555Z AUTO 00000KT 40SM 08/01 A3005 RMK AO1 T00780011
LAUREL      |K6S8 290555Z AUTO 00000KT 40SM 11/04 A3003 RMK AO1 T01110044






000
SXUS55 KMSO 290603
OSOMSO
MONTANA AWOS SUMMARY
NATIONAL WEATHER SERVICE MISSOULA MT
1202 AM MDT SUN MAY 29 2016

Montana AWOS Reports

PLAINS      |KS34 290555Z AUTO 00000KT 25SM 06/02 A3005 RMK AO1 T00610022
LAUREL      |K6S8 290555Z AUTO 00000KT 40SM 11/04 A3003 RMK AO1 T01110044
ROUNDUP     |KRPX 290555Z AUTO 00000KT 40SM 12/02 A2996 RMK AO1 T01170022
SCOBEY      |K9S2 290555Z AUTO 00000KT 40SM 08/02 A2996 RMK AO1 T00780017
EKALAKA     |K97M 290555Z AUTO 13004KT 40SM 08/03 A3002 RMK AO1 T00830033






000
SXUS55 KMSO 290503
OSOMSO
MONTANA AWOS SUMMARY
NATIONAL WEATHER SERVICE MISSOULA MT
1103 PM MDT SAT MAY 28 2016

Montana AWOS Reports

LAUREL      |K6S8 290455Z AUTO 00000KT 40SM 09/04 A3003 RMK AO1 T00940039
ROUNDUP     |KRPX 290455Z AUTO 00000KT 40SM 12/03 A2996 RMK AO1 T01170033
PLAINS      |KS34 290455Z AUTO 00000KT 25SM 07/02 A3005 RMK AO1 T00670022






000
SXUS55 KMSO 290023
OSOMSO
MONTANA AWOS SUMMARY
NATIONAL WEATHER SERVICE MISSOULA MT
623 PM MDT SAT MAY 28 2016

Montana AWOS Reports

LAUREL      |K6S8 290015Z AUTO 00000KT 40SM 17/05 A2999 RMK AO1 T01720050
TWIN BRIDGES|K7S1 290015Z AUTO 24004KT 40SM 18/M02 A3001 RMK AO1 T01831016
ROUNDUP     |KRPX 290015Z AUTO 25004KT 40SM 19/02 A2990 RMK AO1 T01890022






000
SXUS55 KMSO 290013
OSOMSO
MONTANA AWOS SUMMARY
NATIONAL WEATHER SERVICE MISSOULA MT
613 PM MDT SAT MAY 28 2016

Montana AWOS Reports

TWIN BRIDGES|K7S1 290002Z AUTO 00000KT 40SM 17/M02 A3001 RMK AO1 T01721021
LAUREL      |K6S8 290003Z AUTO 26006KT 40SM 18/04 A2999 RMK AO1 T01780039






000
SXUS55 KMSO 282324
OSOMSO
MONTANA AWOS SUMMARY
NATIONAL WEATHER SERVICE MISSOULA MT
523 PM MDT SAT MAY 28 2016

Montana AWOS Reports

LAUREL      |K6S8 282315Z AUTO 27007KT 40SM 18/04 A2998 RMK AO1 T01830039
ROUNDUP     |KRPX 282315Z AUTO 26005KT 40SM 18/02 A2990 RMK AO1 T01830022






000
SXUS55 KMSO 282303
OSOMSO
MONTANA AWOS SUMMARY
NATIONAL WEATHER SERVICE MISSOULA MT
503 PM MDT SAT MAY 28 2016

Montana AWOS Reports

LAUREL      |K6S8 282255Z AUTO 26009KT 40SM 19/04 A2998 RMK AO1 T01890039
ROUNDUP     |KRPX 282255Z AUTO 23011G16KT 40SM 18/01 A2990 RMK AO1 T01830006
SCOBEY      |K9S2 282255Z AUTO 29008KT 40SM 17/07 A2991 RMK AO1 T01670067






000
SXUS55 KMSO 282244
OSOMSO
MONTANA AWOS SUMMARY
NATIONAL WEATHER SERVICE MISSOULA MT
443 PM MDT SAT MAY 28 2016

Montana AWOS Reports

LAUREL      |K6S8 282235Z AUTO 29005KT 40SM 18/05 A2998 RMK AO1 T01830050
ROUNDUP     |KRPX 282235Z AUTO 26012G16KT 40SM 18/02 A2990 RMK AO1 T01830017






000
SXUS55 KMSO 281933
OSOMSO
MONTANA AWOS SUMMARY
NATIONAL WEATHER SERVICE MISSOULA MT
133 PM MDT SAT MAY 28 2016

Montana AWOS Reports

TWIN BRIDGES|K7S1 281915Z AUTO 18008KT 150V210 40SM 14/01 A3001 RMK AO1 T01440006






000
SXUS55 KMSO 281913
OSOMSO
MONTANA AWOS SUMMARY
NATIONAL WEATHER SERVICE MISSOULA MT
113 PM MDT SAT MAY 28 2016

Montana AWOS Reports

LAUREL      |K6S8 281855Z AUTO 33004KT 40SM 17/04 A2998 RMK AO1 T01720039






000
SXUS55 KMSO 281853
OSOMSO
MONTANA AWOS SUMMARY
NATIONAL WEATHER SERVICE MISSOULA MT
1252 PM MDT SAT MAY 28 2016

Montana AWOS Reports

TWIN BRIDGES|K7S1 281835Z AUTO 12008KT 40SM 13/03 A3002 RMK AO1 T01280033






000
SXUS55 KMSO 281843
OSOMSO
MONTANA AWOS SUMMARY
NATIONAL WEATHER SERVICE MISSOULA MT
1243 PM MDT SAT MAY 28 2016

Montana AWOS Reports

LAUREL      |K6S8 281835Z AUTO 35004KT 40SM 16/03 A2998 RMK AO1 T01610033
ROUNDUP     |KRPX 281835Z AUTO 20005KT 40SM 16/02 A2990 RMK AO1 T01610022






000
SXUS55 KMSO 281703
OSOMSO
MONTANA AWOS SUMMARY
NATIONAL WEATHER SERVICE MISSOULA MT
1102 AM MDT SAT MAY 28 2016

Montana AWOS Reports

LAUREL      |K6S8 281655Z AUTO 00000KT 40SM 14/06 A2999 RMK AO1 T01390061
ROUNDUP     |KRPX 281655Z AUTO 00000KT 40SM 15/04 A2989 RMK AO1 T01500044
SCOBEY      |K9S2 281655Z AUTO 09010KT 15SM 13/09 A2988 RMK AO1 T01330094
EKALAKA     |K97M 281655Z AUTO 27011G18KT 15SM 17/09 A2992 RMK AO1 T01720094
PLAINS      |KS34 281655Z AUTO 00000KT 25SM 13/03 A3005 RMK AO1 T01330033






000
SXUS55 KMSO 281623
OSOMSO
MONTANA AWOS SUMMARY
NATIONAL WEATHER SERVICE MISSOULA MT
1023 AM MDT SAT MAY 28 2016

Montana AWOS Reports

LAUREL      |K6S8 281615Z AUTO 00000KT 40SM 13/07 A2998 RMK AO1 T01280067
ROUNDUP     |KRPX 281615Z AUTO 40SM 14/04 A2989 RMK AO1 T01440039






000
SXUS55 KMSO 281613
OSOMSO
MONTANA AWOS SUMMARY
NATIONAL WEATHER SERVICE MISSOULA MT
1012 AM MDT SAT MAY 28 2016

Montana AWOS Reports

TWIN BRIDGES|K7S1 281555Z AUTO 00000KT 40SM 11/04 A3002 RMK AO1 T01060044
LAUREL      |K6S8 281555Z AUTO 00000KT 40SM 13/07 A2998 RMK AO1 T01280072






000
SXUS55 KMSO 281543
OSOMSO
MONTANA AWOS SUMMARY
NATIONAL WEATHER SERVICE MISSOULA MT
943 AM MDT SAT MAY 28 2016

Montana AWOS Reports

TWIN BRIDGES|K7S1 281535Z AUTO 00000KT 40SM 10/05 A3002 RMK AO1 T01000050






000
SXUS55 KMSO 281313
OSOMSO
MONTANA AWOS SUMMARY
NATIONAL WEATHER SERVICE MISSOULA MT
712 AM MDT SAT MAY 28 2016

Montana AWOS Reports

TWIN BRIDGES|K7S1 281255Z AUTO 00000KT 25SM 04/02 A3000 RMK AO1 T00440022
LAUREL      |K6S8 281255Z AUTO 00000KT 40SM 09/07 A2996 RMK AO1 T00940072
PLAINS      |KS34 281255Z AUTO 00000KT 25SM 03/01 A3004 RMK AO1 T00330006






000
SXUS55 KMSO 281303
OSOMSO
MONTANA AWOS SUMMARY
NATIONAL WEATHER SERVICE MISSOULA MT
703 AM MDT SAT MAY 28 2016

Montana AWOS Reports

LAUREL      |K6S8 281255Z AUTO 00000KT 40SM 09/07 A2996 RMK AO1 T00940072
ROUNDUP     |KRPX 281255Z AUTO 00000KT 40SM 10/07 A2987 RMK AO1 T01000067
SCOBEY      |K9S2 281255Z AUTO 09010KT 3SM HZ 12/09 A2988 RMK AO1 T01170089
EKALAKA     |K97M 281255Z AUTO 00000KT 40SM 12/07 A2989 RMK AO1 T01170067






000
SXUS55 KMSO 281233
OSOMSO
MONTANA AWOS SUMMARY
NATIONAL WEATHER SERVICE MISSOULA MT
632 AM MDT SAT MAY 28 2016

Montana AWOS Reports

TWIN BRIDGES|K7S1 281215Z AUTO 00000KT 40SM 04/02 A2999 RMK AO1 T00390017






000
SXUS55 KMSO 281223
OSOMSO
MONTANA AWOS SUMMARY
NATIONAL WEATHER SERVICE MISSOULA MT
622 AM MDT SAT MAY 28 2016

Montana AWOS Reports

LAUREL      |K6S8 281215Z AUTO 00000KT 25SM 09/07 A2996 RMK AO1 T00940072
ROUNDUP     |KRPX 281215Z AUTO 00000KT 25SM 10/07 A2987 RMK AO1 T01000067






000
SXUS55 KMSO 281213
OSOMSO
MONTANA AWOS SUMMARY
NATIONAL WEATHER SERVICE MISSOULA MT
613 AM MDT SAT MAY 28 2016

Montana AWOS Reports

LAUREL      |K6S8 281155Z AUTO 00000KT 40SM 09/07 A2995 RMK AO1 T00940072






000
SXUS55 KMSO 281203
OSOMSO
MONTANA AWOS SUMMARY
NATIONAL WEATHER SERVICE MISSOULA MT
602 AM MDT SAT MAY 28 2016

Montana AWOS Reports

LAUREL      |K6S8 281155Z AUTO 00000KT 40SM 09/07 A2995 RMK AO1 T00940072
ROUNDUP     |KRPX 281155Z AUTO 00000KT 40SM 10/06 A2987 RMK AO1 T01000061
PLAINS      |KS34 281155Z AUTO 00000KT 25SM 02/M01 A3003 RMK AO1 T00221005
SCOBEY      |K9S2 281155Z AUTO 09010KT 7SM 12/09 A2987 RMK AO1 T01170089
EKALAKA     |K97M 281155Z AUTO 00000KT 40SM 11/06 A2988 RMK AO1 T01060061
TWIN BRIDGES|K7S1 281155Z AUTO 00000KT 15SM 03/01 A2999 RMK AO1 T00330011






000
SXUS55 KMSO 281143
OSOMSO
MONTANA AWOS SUMMARY
NATIONAL WEATHER SERVICE MISSOULA MT
543 AM MDT SAT MAY 28 2016

Montana AWOS Reports

LAUREL      |K6S8 281135Z AUTO 00000KT 40SM 09/07 A2994 RMK AO1 T00890067
ROUNDUP     |KRPX 281135Z AUTO 00000KT 40SM 10/06 A2986 RMK AO1 T01000061






000
SXUS55 KMSO 281123
OSOMSO
MONTANA AWOS SUMMARY
NATIONAL WEATHER SERVICE MISSOULA MT
523 AM MDT SAT MAY 28 2016

Montana AWOS Reports

LAUREL      |K6S8 281115Z AUTO 00000KT 40SM 09/07 A2994 RMK AO1 T00890072
ROUNDUP     |KRPX 281115Z AUTO 00000KT 40SM 10/06 A2986 RMK AO1 T01000056
TWIN BRIDGES|K7S1 281115Z AUTO 00000KT 25SM 04/02 A2999 RMK AO1 T00390017
PLAINS      |KS34 281055Z AUTO 00000KT 25SM 02/M01 A3002 RMK AO1 T00221005






000
SXUS55 KMSO 281113
OSOMSO
MONTANA AWOS SUMMARY
NATIONAL WEATHER SERVICE MISSOULA MT
513 AM MDT SAT MAY 28 2016

Montana AWOS Reports

TWIN BRIDGES|K7S1 281055Z AUTO 00000KT 25SM 04/02 A2998 RMK AO1 T00390017
EKALAKA     |K97M 281055Z AUTO 00000KT 40SM 10/06 A2987 RMK AO1 T01000056
LAUREL      |K6S8 281055Z AUTO 00000KT 40SM 09/07 A2993 RMK AO1 T00890067






000
SXUS55 KMSO 281103
OSOMSO
MONTANA AWOS SUMMARY
NATIONAL WEATHER SERVICE MISSOULA MT
503 AM MDT SAT MAY 28 2016

Montana AWOS Reports

LAUREL      |K6S8 281055Z AUTO 00000KT 40SM 09/07 A2993 RMK AO1 T00890067
ROUNDUP     |KRPX 281055Z AUTO 00000KT 40SM 10/06 A2985 RMK AO1 T01000056
SCOBEY      |K9S2 281055Z AUTO 09009G13KT 10SM 12/08 A2987 RMK AO1 T01170083






000
SXUS55 KMSO 281034
OSOMSO
MONTANA AWOS SUMMARY
NATIONAL WEATHER SERVICE MISSOULA MT
433 AM MDT SAT MAY 28 2016

Montana AWOS Reports

TWIN BRIDGES|K7S1 281015Z AUTO 00000KT 25SM 04/02 A2999 RMK AO1 T00390017






000
SXUS55 KMSO 281024
OSOMSO
MONTANA AWOS SUMMARY
NATIONAL WEATHER SERVICE MISSOULA MT
423 AM MDT SAT MAY 28 2016

Montana AWOS Reports

LAUREL      |K6S8 281015Z AUTO 00000KT 40SM 09/07 A2993 RMK AO1 T00940067
ROUNDUP     |KRPX 281015Z AUTO 00000KT 40SM 11/07 A2985 RMK AO1 T01060067






    US Dept of Commerce
    National Oceanic and Atmospheric Administration
    National Weather Service
    1325 East West Highway
    Silver Spring, MD 20910
    Page Author: NWS Internet Services Team
Disclaimer
Information Quality
Credits
Glossary
Privacy Policy
Freedom of Information Act (FOIA)
About Us
Career Opportunities